Terminal Aerodrome Forecast
Issued by NWS Dodge City, KS

Home | Current Version | Previous Version | Text Only | Print | Product List | Glossary On
Versions: 1 2 3 4 5 6 7 8 9 10 11 12 13 14 15 16 17 18 19 20 21 22 23 24 25 26 27 28 29 30 31 32 33 34 35 36 37 38 39 40 41
436
FTUS43 KDDC 201720
TAFDDC
TAF
KDDC 201720Z 2018/2118 16021G30KT P6SM BKN100
     FM202100 15015G25KT P6SM -SHRA OVC040
     FM210300 11010KT 6SM -SHRA OVC020
     FM210600 11010KT 5SM -SHRA OVC006
     FM211200 10010KT 3SM -SHRA OVC002=

USA.gov is the U.S. government's official web portal to all federal, state and local government web resources and services.